sensor_id;sensor_type;location;lat;lon;timestamp;P1;durP1;ratioP1;P2;durP2;ratioP2
27539;SDS011;15906;52.046;4.724;2023-05-02T00:00:14;23.55;;;13.32;;
27539;SDS011;15906;52.046;4.724;2023-05-02T00:02:40;30.10;;;16.00;;
27539;SDS011;15906;52.046;4.724;2023-05-02T00:05:05;29.55;;;15.45;;
27539;SDS011;15906;52.046;4.724;2023-05-02T00:07:32;25.42;;;14.38;;
27539;SDS011;15906;52.046;4.724;2023-05-02T00:09:58;31.10;;;16.38;;
27539;SDS011;15906;52.046;4.724;2023-05-02T00:12:24;27.23;;;15.60;;
27539;SDS011;15906;52.046;4.724;2023-05-02T00:14:49;23.58;;;13.57;;
27539;SDS011;15906;52.046;4.724;2023-05-02T00:17:16;30.27;;;16.23;;
27539;SDS011;15906;52.046;4.724;2023-05-02T00:19:42;27.00;;;15.18;;
27539;SDS011;15906;52.046;4.724;2023-05-02T00:22:08;26.92;;;14.57;;
27539;SDS011;15906;52.046;4.724;2023-05-02T00:24:33;26.20;;;14.20;;
27539;SDS011;15906;52.046;4.724;2023-05-02T00:26:59;19.20;;;10.20;;
27539;SDS011;15906;52.046;4.724;2023-05-02T00:29:25;17.88;;;10.30;;
27539;SDS011;15906;52.046;4.724;2023-05-02T00:31:50;16.15;;;9.70;;
27539;SDS011;15906;52.046;4.724;2023-05-02T00:34:16;17.00;;;9.80;;
27539;SDS011;15906;52.046;4.724;2023-05-02T00:36:41;16.50;;;8.25;;
27539;SDS011;15906;52.046;4.724;2023-05-02T00:39:07;15.40;;;6.97;;
27539;SDS011;15906;52.046;4.724;2023-05-02T00:41:32;11.13;;;7.28;;
27539;SDS011;15906;52.046;4.724;2023-05-02T00:43:58;18.38;;;7.78;;
27539;SDS011;15906;52.046;4.724;2023-05-02T00:46:24;16.90;;;7.20;;
27539;SDS011;15906;52.046;4.724;2023-05-02T00:48:49;16.40;;;7.40;;
27539;SDS011;15906;52.046;4.724;2023-05-02T00:51:15;14.15;;;7.38;;
27539;SDS011;15906;52.046;4.724;2023-05-02T00:53:41;16.88;;;7.20;;
27539;SDS011;15906;52.046;4.724;2023-05-02T00:56:06;12.13;;;7.38;;
27539;SDS011;15906;52.046;4.724;2023-05-02T00:58:33;16.38;;;9.02;;
27539;SDS011;15906;52.046;4.724;2023-05-02T01:01:08;17.15;;;9.32;;
27539;SDS011;15906;52.046;4.724;2023-05-02T01:03:54;15.00;;;8.32;;
27539;SDS011;15906;52.046;4.724;2023-05-02T01:12:05;14.77;;;7.47;;
27539;SDS011;15906;52.046;4.724;2023-05-02T01:14:44;21.83;;;7.60;;
27539;SDS011;15906;52.046;4.724;2023-05-02T01:17:13;12.98;;;5.63;;
27539;SDS011;15906;52.046;4.724;2023-05-02T01:19:42;14.25;;;6.85;;
27539;SDS011;15906;52.046;4.724;2023-05-02T01:22:13;10.38;;;5.30;;
27539;SDS011;15906;52.046;4.724;2023-05-02T01:30:03;20.92;;;5.38;;
27539;SDS011;15906;52.046;4.724;2023-05-02T01:32:32;9.27;;;4.90;;
27539;SDS011;15906;52.046;4.724;2023-05-02T01:35:00;10.98;;;5.53;;
27539;SDS011;15906;52.046;4.724;2023-05-02T01:37:28;17.80;;;4.53;;
27539;SDS011;15906;52.046;4.724;2023-05-02T01:39:54;17.10;;;5.35;;
27539;SDS011;15906;52.046;4.724;2023-05-02T01:42:22;15.65;;;5.55;;
27539;SDS011;15906;52.046;4.724;2023-05-02T01:44:50;17.60;;;6.13;;
27539;SDS011;15906;52.046;4.724;2023-05-02T01:47:18;14.60;;;5.75;;
27539;SDS011;15906;52.046;4.724;2023-05-02T01:49:47;15.20;;;6.30;;
27539;SDS011;15906;52.046;4.724;2023-05-02T01:52:12;21.70;;;7.28;;
27539;SDS011;15906;52.046;4.724;2023-05-02T01:54:40;25.00;;;7.72;;
27539;SDS011;15906;52.046;4.724;2023-05-02T01:57:07;16.95;;;6.40;;
27539;SDS011;15906;52.046;4.724;2023-05-02T01:59:34;19.23;;;5.43;;
27539;SDS011;15906;52.046;4.724;2023-05-02T02:02:01;14.70;;;4.97;;
27539;SDS011;15906;52.046;4.724;2023-05-02T02:04:28;14.13;;;5.03;;
27539;SDS011;15906;52.046;4.724;2023-05-02T02:06:57;12.63;;;5.00;;
27539;SDS011;15906;52.046;4.724;2023-05-02T02:09:27;12.45;;;5.25;;
27539;SDS011;15906;52.046;4.724;2023-05-02T02:11:58;10.20;;;4.47;;
27539;SDS011;15906;52.046;4.724;2023-05-02T02:14:32;12.73;;;5.20;;
27539;SDS011;15906;52.046;4.724;2023-05-02T02:17:01;16.02;;;4.95;;
27539;SDS011;15906;52.046;4.724;2023-05-02T02:19:35;12.63;;;5.32;;
27539;SDS011;15906;52.046;4.724;2023-05-02T02:22:03;8.65;;;4.18;;
27539;SDS011;15906;52.046;4.724;2023-05-02T02:24:31;8.68;;;3.38;;
27539;SDS011;15906;52.046;4.724;2023-05-02T02:27:00;7.40;;;3.10;;
27539;SDS011;15906;52.046;4.724;2023-05-02T02:29:26;12.20;;;3.28;;
27539;SDS011;15906;52.046;4.724;2023-05-02T02:31:52;9.73;;;2.53;;
27539;SDS011;15906;52.046;4.724;2023-05-02T02:34:17;7.13;;;2.30;;
27539;SDS011;15906;52.046;4.724;2023-05-02T02:36:50;4.35;;;2.00;;
27539;SDS011;15906;52.046;4.724;2023-05-02T02:39:27;6.53;;;1.90;;
27539;SDS011;15906;52.046;4.724;2023-05-02T02:53:04;9.00;;;2.08;;
27539;SDS011;15906;52.046;4.724;2023-05-02T02:58:14;10.32;;;2.25;;
27539;SDS011;15906;52.046;4.724;2023-05-02T03:00:54;8.60;;;3.22;;
27539;SDS011;15906;52.046;4.724;2023-05-02T03:03:21;4.18;;;2.17;;
27539;SDS011;15906;52.046;4.724;2023-05-02T03:05:52;8.35;;;2.35;;
27539;SDS011;15906;52.046;4.724;2023-05-02T03:08:20;5.40;;;1.88;;
27539;SDS011;15906;52.046;4.724;2023-05-02T03:10:46;7.50;;;2.17;;
27539;SDS011;15906;52.046;4.724;2023-05-02T03:13:11;7.35;;;2.13;;
27539;SDS011;15906;52.046;4.724;2023-05-02T03:18:15;10.45;;;2.38;;
27539;SDS011;15906;52.046;4.724;2023-05-02T03:20:40;10.40;;;2.10;;
27539;SDS011;15906;52.046;4.724;2023-05-02T03:23:06;6.47;;;2.22;;
27539;SDS011;15906;52.046;4.724;2023-05-02T03:25:32;6.35;;;1.50;;
27539;SDS011;15906;52.046;4.724;2023-05-02T03:27:57;9.48;;;1.80;;
27539;SDS011;15906;52.046;4.724;2023-05-02T03:30:23;14.25;;;2.10;;
27539;SDS011;15906;52.046;4.724;2023-05-02T03:32:48;7.47;;;2.42;;
27539;SDS011;15906;52.046;4.724;2023-05-02T03:35:14;9.70;;;3.00;;
27539;SDS011;15906;52.046;4.724;2023-05-02T03:37:40;9.43;;;2.50;;
27539;SDS011;15906;52.046;4.724;2023-05-02T03:40:06;8.35;;;2.42;;
27539;SDS011;15906;52.046;4.724;2023-05-02T03:42:33;10.73;;;2.70;;
27539;SDS011;15906;52.046;4.724;2023-05-02T03:45:04;9.23;;;2.90;;
27539;SDS011;15906;52.046;4.724;2023-05-02T03:47:30;5.65;;;2.25;;
27539;SDS011;15906;52.046;4.724;2023-05-02T03:49:56;9.52;;;2.65;;
27539;SDS011;15906;52.046;4.724;2023-05-02T03:52:23;9.60;;;2.45;;
27539;SDS011;15906;52.046;4.724;2023-05-02T03:54:49;7.22;;;2.25;;
27539;SDS011;15906;52.046;4.724;2023-05-02T03:57:14;10.07;;;2.80;;
27539;SDS011;15906;52.046;4.724;2023-05-02T03:59:40;7.07;;;2.65;;
27539;SDS011;15906;52.046;4.724;2023-05-02T04:02:07;8.73;;;2.25;;
27539;SDS011;15906;52.046;4.724;2023-05-02T04:04:33;4.47;;;2.17;;
27539;SDS011;15906;52.046;4.724;2023-05-02T04:06:58;5.57;;;2.13;;
27539;SDS011;15906;52.046;4.724;2023-05-02T04:09:24;10.45;;;2.30;;
27539;SDS011;15906;52.046;4.724;2023-05-02T04:11:50;7.55;;;2.15;;
27539;SDS011;15906;52.046;4.724;2023-05-02T04:14:16;7.63;;;2.30;;
27539;SDS011;15906;52.046;4.724;2023-05-02T04:16:46;9.10;;;3.67;;
27539;SDS011;15906;52.046;4.724;2023-05-02T04:19:15;10.82;;;2.28;;
27539;SDS011;15906;52.046;4.724;2023-05-02T04:21:42;5.10;;;1.73;;
27539;SDS011;15906;52.046;4.724;2023-05-02T04:24:08;5.50;;;1.92;;
27539;SDS011;15906;52.046;4.724;2023-05-02T04:26:34;8.50;;;2.05;;
27539;SDS011;15906;52.046;4.724;2023-05-02T04:29:00;7.53;;;2.20;;
27539;SDS011;15906;52.046;4.724;2023-05-02T04:31:26;7.15;;;2.00;;
27539;SDS011;15906;52.046;4.724;2023-05-02T04:33:52;9.02;;;2.47;;
27539;SDS011;15906;52.046;4.724;2023-05-02T04:36:17;4.38;;;1.80;;
27539;SDS011;15906;52.046;4.724;2023-05-02T04:38:43;7.97;;;1.92;;
27539;SDS011;15906;52.046;4.724;2023-05-02T04:41:09;8.13;;;1.75;;
27539;SDS011;15906;52.046;4.724;2023-05-02T04:43:35;7.30;;;3.10;;
27539;SDS011;15906;52.046;4.724;2023-05-02T04:46:00;10.27;;;2.13;;
27539;SDS011;15906;52.046;4.724;2023-05-02T04:48:26;7.35;;;1.80;;
27539;SDS011;15906;52.046;4.724;2023-05-02T04:50:51;6.63;;;2.17;;
27539;SDS011;15906;52.046;4.724;2023-05-02T04:53:20;12.68;;;2.35;;
27539;SDS011;15906;52.046;4.724;2023-05-02T04:55:46;7.47;;;2.33;;
27539;SDS011;15906;52.046;4.724;2023-05-02T04:58:12;8.20;;;2.50;;
27539;SDS011;15906;52.046;4.724;2023-05-02T05:00:37;8.10;;;2.10;;
27539;SDS011;15906;52.046;4.724;2023-05-02T05:03:03;9.88;;;2.42;;
27539;SDS011;15906;52.046;4.724;2023-05-02T05:05:30;12.20;;;2.40;;
27539;SDS011;15906;52.046;4.724;2023-05-02T05:07:56;10.50;;;2.63;;
27539;SDS011;15906;52.046;4.724;2023-05-02T05:10:21;12.45;;;2.58;;
27539;SDS011;15906;52.046;4.724;2023-05-02T05:12:47;15.95;;;2.53;;
27539;SDS011;15906;52.046;4.724;2023-05-02T05:15:13;7.15;;;2.67;;
27539;SDS011;15906;52.046;4.724;2023-05-02T05:17:39;10.00;;;2.70;;
27539;SDS011;15906;52.046;4.724;2023-05-02T05:20:06;8.07;;;2.75;;
27539;SDS011;15906;52.046;4.724;2023-05-02T05:22:42;8.57;;;2.67;;
27539;SDS011;15906;52.046;4.724;2023-05-02T05:25:08;9.52;;;3.30;;
27539;SDS011;15906;52.046;4.724;2023-05-02T05:27:34;15.38;;;3.83;;
27539;SDS011;15906;52.046;4.724;2023-05-02T05:30:01;16.58;;;3.40;;
27539;SDS011;15906;52.046;4.724;2023-05-02T05:32:27;8.25;;;3.58;;
27539;SDS011;15906;52.046;4.724;2023-05-02T05:34:53;16.60;;;4.55;;
27539;SDS011;15906;52.046;4.724;2023-05-02T05:37:19;15.27;;;4.63;;
27539;SDS011;15906;52.046;4.724;2023-05-02T05:39:45;14.20;;;3.58;;
27539;SDS011;15906;52.046;4.724;2023-05-02T05:42:11;15.57;;;4.15;;
27539;SDS011;15906;52.046;4.724;2023-05-02T05:44:37;11.07;;;3.75;;
27539;SDS011;15906;52.046;4.724;2023-05-02T05:47:03;11.98;;;2.97;;
27539;SDS011;15906;52.046;4.724;2023-05-02T05:49:29;9.25;;;3.40;;
27539;SDS011;15906;52.046;4.724;2023-05-02T05:51:54;12.05;;;4.63;;
27539;SDS011;15906;52.046;4.724;2023-05-02T05:54:20;10.18;;;2.90;;
27539;SDS011;15906;52.046;4.724;2023-05-02T05:56:46;9.93;;;3.10;;
27539;SDS011;15906;52.046;4.724;2023-05-02T05:59:12;12.43;;;2.92;;
27539;SDS011;15906;52.046;4.724;2023-05-02T06:01:37;11.93;;;3.50;;
27539;SDS011;15906;52.046;4.724;2023-05-02T06:04:03;13.50;;;3.13;;
27539;SDS011;15906;52.046;4.724;2023-05-02T06:06:29;6.47;;;2.42;;
27539;SDS011;15906;52.046;4.724;2023-05-02T06:08:58;11.07;;;2.80;;
27539;SDS011;15906;52.046;4.724;2023-05-02T06:11:24;12.23;;;3.38;;
27539;SDS011;15906;52.046;4.724;2023-05-02T06:13:50;10.05;;;2.53;;
27539;SDS011;15906;52.046;4.724;2023-05-02T06:16:16;7.90;;;2.63;;
27539;SDS011;15906;52.046;4.724;2023-05-02T06:18:42;11.07;;;3.20;;
27539;SDS011;15906;52.046;4.724;2023-05-02T06:21:08;11.77;;;3.33;;
27539;SDS011;15906;52.046;4.724;2023-05-02T06:23:34;15.32;;;3.17;;
27539;SDS011;15906;52.046;4.724;2023-05-02T06:26:00;12.85;;;3.33;;
27539;SDS011;15906;52.046;4.724;2023-05-02T06:28:27;11.05;;;2.75;;
27539;SDS011;15906;52.046;4.724;2023-05-02T06:30:59;11.27;;;2.70;;
27539;SDS011;15906;52.046;4.724;2023-05-02T06:33:27;11.98;;;2.80;;
27539;SDS011;15906;52.046;4.724;2023-05-02T06:35:53;10.23;;;3.17;;
27539;SDS011;15906;52.046;4.724;2023-05-02T06:38:19;13.88;;;2.95;;
27539;SDS011;15906;52.046;4.724;2023-05-02T06:40:44;10.07;;;2.67;;
27539;SDS011;15906;52.046;4.724;2023-05-02T06:43:10;15.57;;;2.97;;
27539;SDS011;15906;52.046;4.724;2023-05-02T06:45:36;12.30;;;2.30;;
27539;SDS011;15906;52.046;4.724;2023-05-02T06:48:02;7.93;;;2.28;;
27539;SDS011;15906;52.046;4.724;2023-05-02T06:50:28;13.65;;;3.38;;
27539;SDS011;15906;52.046;4.724;2023-05-02T06:52:54;8.85;;;2.92;;
27539;SDS011;15906;52.046;4.724;2023-05-02T06:55:19;10.43;;;3.20;;
27539;SDS011;15906;52.046;4.724;2023-05-02T06:57:45;15.05;;;3.55;;
27539;SDS011;15906;52.046;4.724;2023-05-02T07:00:12;12.00;;;3.80;;
27539;SDS011;15906;52.046;4.724;2023-05-02T07:02:38;16.10;;;3.33;;
27539;SDS011;15906;52.046;4.724;2023-05-02T07:05:04;15.32;;;2.85;;
27539;SDS011;15906;52.046;4.724;2023-05-02T07:07:30;12.23;;;3.60;;
27539;SDS011;15906;52.046;4.724;2023-05-02T07:09:56;11.07;;;2.58;;
27539;SDS011;15906;52.046;4.724;2023-05-02T07:12:21;10.30;;;2.60;;
27539;SDS011;15906;52.046;4.724;2023-05-02T07:14:47;4.53;;;2.60;;
27539;SDS011;15906;52.046;4.724;2023-05-02T07:17:12;7.80;;;2.90;;
27539;SDS011;15906;52.046;4.724;2023-05-02T07:19:39;10.05;;;3.08;;
27539;SDS011;15906;52.046;4.724;2023-05-02T07:22:05;7.93;;;3.20;;
27539;SDS011;15906;52.046;4.724;2023-05-02T07:24:31;13.45;;;2.78;;
27539;SDS011;15906;52.046;4.724;2023-05-02T07:26:56;11.15;;;3.00;;
27539;SDS011;15906;52.046;4.724;2023-05-02T07:29:22;11.27;;;3.03;;
27539;SDS011;15906;52.046;4.724;2023-05-02T07:31:49;8.70;;;2.70;;
27539;SDS011;15906;52.046;4.724;2023-05-02T07:34:14;7.68;;;2.20;;
27539;SDS011;15906;52.046;4.724;2023-05-02T07:36:40;5.68;;;2.65;;
27539;SDS011;15906;52.046;4.724;2023-05-02T07:39:05;10.68;;;2.50;;
27539;SDS011;15906;52.046;4.724;2023-05-02T07:41:31;10.02;;;2.83;;
27539;SDS011;15906;52.046;4.724;2023-05-02T07:43:57;10.45;;;3.03;;
27539;SDS011;15906;52.046;4.724;2023-05-02T07:46:22;8.00;;;2.70;;
27539;SDS011;15906;52.046;4.724;2023-05-02T07:48:48;6.88;;;2.35;;
27539;SDS011;15906;52.046;4.724;2023-05-02T07:51:14;6.25;;;2.28;;
27539;SDS011;15906;52.046;4.724;2023-05-02T07:53:40;8.70;;;1.80;;
27539;SDS011;15906;52.046;4.724;2023-05-02T07:56:06;7.45;;;2.20;;
27539;SDS011;15906;52.046;4.724;2023-05-02T07:58:33;13.10;;;2.47;;
27539;SDS011;15906;52.046;4.724;2023-05-02T08:01:00;10.32;;;2.72;;
27539;SDS011;15906;52.046;4.724;2023-05-02T08:03:26;8.07;;;2.38;;
27539;SDS011;15906;52.046;4.724;2023-05-02T08:05:53;7.32;;;2.15;;
27539;SDS011;15906;52.046;4.724;2023-05-02T08:08:18;9.98;;;1.77;;
27539;SDS011;15906;52.046;4.724;2023-05-02T08:10:44;6.55;;;2.08;;
27539;SDS011;15906;52.046;4.724;2023-05-02T08:13:10;8.35;;;2.42;;
27539;SDS011;15906;52.046;4.724;2023-05-02T08:15:36;6.35;;;2.33;;
27539;SDS011;15906;52.046;4.724;2023-05-02T08:18:01;8.63;;;2.33;;
27539;SDS011;15906;52.046;4.724;2023-05-02T08:20:27;7.88;;;1.75;;
27539;SDS011;15906;52.046;4.724;2023-05-02T08:22:53;5.45;;;1.88;;
27539;SDS011;15906;52.046;4.724;2023-05-02T08:25:18;6.70;;;1.98;;
27539;SDS011;15906;52.046;4.724;2023-05-02T08:27:44;4.13;;;1.63;;
27539;SDS011;15906;52.046;4.724;2023-05-02T08:30:10;6.85;;;2.60;;
27539;SDS011;15906;52.046;4.724;2023-05-02T08:32:36;8.27;;;1.98;;
27539;SDS011;15906;52.046;4.724;2023-05-02T08:35:02;4.25;;;1.80;;
27539;SDS011;15906;52.046;4.724;2023-05-02T08:37:27;8.20;;;1.83;;
27539;SDS011;15906;52.046;4.724;2023-05-02T08:39:53;4.15;;;1.90;;
27539;SDS011;15906;52.046;4.724;2023-05-02T08:42:18;8.55;;;2.22;;
27539;SDS011;15906;52.046;4.724;2023-05-02T08:44:45;6.57;;;2.33;;
27539;SDS011;15906;52.046;4.724;2023-05-02T08:47:12;6.00;;;2.05;;
27539;SDS011;15906;52.046;4.724;2023-05-02T08:49:39;5.40;;;1.92;;
27539;SDS011;15906;52.046;4.724;2023-05-02T08:52:06;5.35;;;1.90;;
27539;SDS011;15906;52.046;4.724;2023-05-02T08:54:36;7.45;;;2.33;;
27539;SDS011;15906;52.046;4.724;2023-05-02T08:57:02;4.80;;;2.38;;
27539;SDS011;15906;52.046;4.724;2023-05-02T08:59:29;4.97;;;1.70;;
27539;SDS011;15906;52.046;4.724;2023-05-02T09:02:00;8.32;;;1.92;;
27539;SDS011;15906;52.046;4.724;2023-05-02T09:04:36;8.10;;;2.20;;
27539;SDS011;15906;52.046;4.724;2023-05-02T09:07:05;4.65;;;1.85;;
27539;SDS011;15906;52.046;4.724;2023-05-02T09:09:30;7.68;;;2.22;;
27539;SDS011;15906;52.046;4.724;2023-05-02T09:11:58;7.60;;;1.95;;
27539;SDS011;15906;52.046;4.724;2023-05-02T09:14:23;4.50;;;1.65;;
27539;SDS011;15906;52.046;4.724;2023-05-02T09:16:50;9.05;;;1.88;;
27539;SDS011;15906;52.046;4.724;2023-05-02T09:19:23;5.18;;;2.00;;
27539;SDS011;15906;52.046;4.724;2023-05-02T09:21:58;3.88;;;1.83;;
27539;SDS011;15906;52.046;4.724;2023-05-02T09:24:25;4.03;;;1.48;;
27539;SDS011;15906;52.046;4.724;2023-05-02T09:26:58;8.02;;;1.90;;
27539;SDS011;15906;52.046;4.724;2023-05-02T09:29:30;3.45;;;1.35;;
27539;SDS011;15906;52.046;4.724;2023-05-02T09:32:02;2.90;;;1.83;;
27539;SDS011;15906;52.046;4.724;2023-05-02T09:34:28;3.78;;;1.52;;
27539;SDS011;15906;52.046;4.724;2023-05-02T09:36:54;5.20;;;2.03;;
27539;SDS011;15906;52.046;4.724;2023-05-02T09:39:27;4.70;;;1.75;;
27539;SDS011;15906;52.046;4.724;2023-05-02T09:41:53;4.60;;;1.70;;
27539;SDS011;15906;52.046;4.724;2023-05-02T09:44:20;4.53;;;1.70;;
27539;SDS011;15906;52.046;4.724;2023-05-02T09:46:48;6.10;;;2.15;;
27539;SDS011;15906;52.046;4.724;2023-05-02T09:49:18;7.57;;;2.42;;
27539;SDS011;15906;52.046;4.724;2023-05-02T09:52:12;5.82;;;1.80;;
27539;SDS011;15906;52.046;4.724;2023-05-02T09:54:39;6.25;;;1.75;;
27539;SDS011;15906;52.046;4.724;2023-05-02T09:57:05;5.60;;;1.85;;
27539;SDS011;15906;52.046;4.724;2023-05-02T09:59:31;8.02;;;2.42;;
27539;SDS011;15906;52.046;4.724;2023-05-02T10:01:57;10.55;;;2.03;;
27539;SDS011;15906;52.046;4.724;2023-05-02T10:04:24;5.55;;;2.40;;
27539;SDS011;15906;52.046;4.724;2023-05-02T10:06:51;9.18;;;2.60;;
27539;SDS011;15906;52.046;4.724;2023-05-02T10:09:18;7.75;;;2.28;;
27539;SDS011;15906;52.046;4.724;2023-05-02T10:11:45;9.35;;;2.33;;
27539;SDS011;15906;52.046;4.724;2023-05-02T10:14:12;7.28;;;2.20;;
27539;SDS011;15906;52.046;4.724;2023-05-02T10:16:51;4.78;;;2.10;;
27539;SDS011;15906;52.046;4.724;2023-05-02T10:19:26;3.90;;;2.15;;
27539;SDS011;15906;52.046;4.724;2023-05-02T10:22:02;6.13;;;2.33;;
27539;SDS011;15906;52.046;4.724;2023-05-02T10:24:29;6.43;;;2.13;;
27539;SDS011;15906;52.046;4.724;2023-05-02T10:26:57;5.97;;;2.30;;
27539;SDS011;15906;52.046;4.724;2023-05-02T10:29:23;5.95;;;1.70;;
27539;SDS011;15906;52.046;4.724;2023-05-02T10:31:52;6.60;;;2.40;;
27539;SDS011;15906;52.046;4.724;2023-05-02T10:34:19;9.48;;;2.33;;
27539;SDS011;15906;52.046;4.724;2023-05-02T10:36:46;4.18;;;1.95;;
27539;SDS011;15906;52.046;4.724;2023-05-02T10:39:12;10.23;;;2.50;;
27539;SDS011;15906;52.046;4.724;2023-05-02T10:41:38;7.45;;;2.42;;
27539;SDS011;15906;52.046;4.724;2023-05-02T10:44:05;4.30;;;2.05;;
27539;SDS011;15906;52.046;4.724;2023-05-02T10:46:36;4.10;;;1.92;;
27539;SDS011;15906;52.046;4.724;2023-05-02T10:49:08;4.97;;;2.10;;
27539;SDS011;15906;52.046;4.724;2023-05-02T10:51:36;5.57;;;2.38;;
27539;SDS011;15906;52.046;4.724;2023-05-02T10:57:00;8.52;;;2.75;;
27539;SDS011;15906;52.046;4.724;2023-05-02T10:59:36;8.55;;;2.53;;
27539;SDS011;15906;52.046;4.724;2023-05-02T11:02:45;5.30;;;2.50;;
27539;SDS011;15906;52.046;4.724;2023-05-02T11:05:01;5.85;;;2.75;;
27539;SDS011;15906;52.046;4.724;2023-05-02T11:07:31;4.68;;;2.58;;
27539;SDS011;15906;52.046;4.724;2023-05-02T11:12:46;6.45;;;2.47;;
27539;SDS011;15906;52.046;4.724;2023-05-02T11:17:57;7.85;;;2.72;;
27539;SDS011;15906;52.046;4.724;2023-05-02T11:20:31;7.65;;;2.60;;
27539;SDS011;15906;52.046;4.724;2023-05-02T11:22:59;8.65;;;2.92;;
27539;SDS011;15906;52.046;4.724;2023-05-02T11:31:03;4.95;;;2.95;;
27539;SDS011;15906;52.046;4.724;2023-05-02T11:33:29;7.05;;;2.97;;
27539;SDS011;15906;52.046;4.724;2023-05-02T11:35:55;8.57;;;2.83;;
27539;SDS011;15906;52.046;4.724;2023-05-02T11:38:24;8.02;;;2.90;;
27539;SDS011;15906;52.046;4.724;2023-05-02T11:40:52;11.35;;;3.28;;
27539;SDS011;15906;52.046;4.724;2023-05-02T11:43:19;6.72;;;2.80;;
27539;SDS011;15906;52.046;4.724;2023-05-02T11:45:45;9.38;;;3.15;;
27539;SDS011;15906;52.046;4.724;2023-05-02T11:48:13;11.85;;;3.47;;
27539;SDS011;15906;52.046;4.724;2023-05-02T11:50:42;6.65;;;2.55;;
27539;SDS011;15906;52.046;4.724;2023-05-02T11:53:12;4.68;;;2.40;;
27539;SDS011;15906;52.046;4.724;2023-05-02T11:55:45;11.98;;;3.30;;
27539;SDS011;15906;52.046;4.724;2023-05-02T11:58:13;6.00;;;3.03;;
27539;SDS011;15906;52.046;4.724;2023-05-02T12:00:40;7.40;;;2.83;;
27539;SDS011;15906;52.046;4.724;2023-05-02T12:03:06;8.60;;;3.13;;
27539;SDS011;15906;52.046;4.724;2023-05-02T12:05:32;5.82;;;2.70;;
27539;SDS011;15906;52.046;4.724;2023-05-02T12:07:57;7.55;;;3.22;;
27539;SDS011;15906;52.046;4.724;2023-05-02T12:10:34;7.55;;;3.15;;
27539;SDS011;15906;52.046;4.724;2023-05-02T12:13:04;8.25;;;3.03;;
27539;SDS011;15906;52.046;4.724;2023-05-02T12:15:30;7.13;;;3.17;;
27539;SDS011;15906;52.046;4.724;2023-05-02T12:17:56;8.07;;;3.05;;
27539;SDS011;15906;52.046;4.724;2023-05-02T12:20:22;7.93;;;3.42;;
27539;SDS011;15906;52.046;4.724;2023-05-02T12:22:48;7.95;;;3.20;;
27539;SDS011;15906;52.046;4.724;2023-05-02T12:25:13;5.30;;;2.92;;
27539;SDS011;15906;52.046;4.724;2023-05-02T12:27:39;6.00;;;3.17;;
27539;SDS011;15906;52.046;4.724;2023-05-02T12:30:05;5.65;;;3.13;;
27539;SDS011;15906;52.046;4.724;2023-05-02T12:32:32;6.05;;;3.13;;
27539;SDS011;15906;52.046;4.724;2023-05-02T12:35:00;7.57;;;3.13;;
27539;SDS011;15906;52.046;4.724;2023-05-02T12:37:27;6.90;;;3.35;;
27539;SDS011;15906;52.046;4.724;2023-05-02T12:39:53;10.20;;;3.15;;
27539;SDS011;15906;52.046;4.724;2023-05-02T12:42:22;6.38;;;3.20;;
27539;SDS011;15906;52.046;4.724;2023-05-02T12:44:50;8.93;;;3.80;;
27539;SDS011;15906;52.046;4.724;2023-05-02T12:47:17;7.45;;;3.10;;
27539;SDS011;15906;52.046;4.724;2023-05-02T12:49:48;11.93;;;3.63;;
27539;SDS011;15906;52.046;4.724;2023-05-02T12:52:30;6.63;;;3.65;;
27539;SDS011;15906;52.046;4.724;2023-05-02T12:55:20;7.28;;;3.33;;
27539;SDS011;15906;52.046;4.724;2023-05-02T12:57:48;7.45;;;2.75;;
27539;SDS011;15906;52.046;4.724;2023-05-02T13:00:17;7.85;;;2.97;;
27539;SDS011;15906;52.046;4.724;2023-05-02T13:02:43;7.75;;;3.13;;
27539;SDS011;15906;52.046;4.724;2023-05-02T13:05:18;6.40;;;3.28;;
27539;SDS011;15906;52.046;4.724;2023-05-02T13:07:44;4.90;;;2.60;;
27539;SDS011;15906;52.046;4.724;2023-05-02T13:10:10;10.32;;;3.00;;
27539;SDS011;15906;52.046;4.724;2023-05-02T13:12:37;6.95;;;3.08;;
27539;SDS011;15906;52.046;4.724;2023-05-02T13:15:03;11.50;;;3.22;;
27539;SDS011;15906;52.046;4.724;2023-05-02T13:17:30;9.30;;;3.13;;
27539;SDS011;15906;52.046;4.724;2023-05-02T13:19:56;13.65;;;3.10;;
27539;SDS011;15906;52.046;4.724;2023-05-02T13:22:22;9.60;;;3.28;;
27539;SDS011;15906;52.046;4.724;2023-05-02T13:24:48;10.73;;;3.25;;
27539;SDS011;15906;52.046;4.724;2023-05-02T13:27:13;7.43;;;2.92;;
27539;SDS011;15906;52.046;4.724;2023-05-02T13:29:39;7.32;;;2.63;;
27539;SDS011;15906;52.046;4.724;2023-05-02T13:32:04;9.57;;;3.20;;
27539;SDS011;15906;52.046;4.724;2023-05-02T13:34:30;7.47;;;2.80;;
27539;SDS011;15906;52.046;4.724;2023-05-02T13:36:56;9.02;;;3.30;;
27539;SDS011;15906;52.046;4.724;2023-05-02T13:39:21;7.38;;;3.10;;
27539;SDS011;15906;52.046;4.724;2023-05-02T13:41:47;9.05;;;3.33;;
27539;SDS011;15906;52.046;4.724;2023-05-02T13:44:12;8.00;;;2.72;;
27539;SDS011;15906;52.046;4.724;2023-05-02T13:46:38;6.60;;;2.80;;
27539;SDS011;15906;52.046;4.724;2023-05-02T13:49:03;7.50;;;3.35;;
27539;SDS011;15906;52.046;4.724;2023-05-02T13:51:30;12.02;;;3.35;;
27539;SDS011;15906;52.046;4.724;2023-05-02T13:53:56;9.75;;;3.42;;
27539;SDS011;15906;52.046;4.724;2023-05-02T13:56:22;9.60;;;3.55;;
27539;SDS011;15906;52.046;4.724;2023-05-02T13:58:48;8.73;;;3.85;;
27539;SDS011;15906;52.046;4.724;2023-05-02T14:01:14;5.80;;;3.47;;
27539;SDS011;15906;52.046;4.724;2023-05-02T14:03:39;11.95;;;3.30;;
27539;SDS011;15906;52.046;4.724;2023-05-02T14:06:05;8.50;;;3.22;;
27539;SDS011;15906;52.046;4.724;2023-05-02T14:08:30;10.40;;;3.95;;
27539;SDS011;15906;52.046;4.724;2023-05-02T14:10:56;7.63;;;3.33;;
27539;SDS011;15906;52.046;4.724;2023-05-02T14:13:21;12.52;;;5.25;;
27539;SDS011;15906;52.046;4.724;2023-05-02T14:15:48;12.45;;;3.85;;
27539;SDS011;15906;52.046;4.724;2023-05-02T14:18:14;10.93;;;3.75;;
27539;SDS011;15906;52.046;4.724;2023-05-02T14:20:40;9.77;;;3.70;;
27539;SDS011;15906;52.046;4.724;2023-05-02T14:23:06;8.98;;;3.80;;
27539;SDS011;15906;52.046;4.724;2023-05-02T14:25:32;11.48;;;3.92;;
27539;SDS011;15906;52.046;4.724;2023-05-02T14:27:58;11.70;;;4.00;;
27539;SDS011;15906;52.046;4.724;2023-05-02T14:30:24;12.55;;;3.92;;
27539;SDS011;15906;52.046;4.724;2023-05-02T14:32:50;10.80;;;3.47;;
27539;SDS011;15906;52.046;4.724;2023-05-02T14:35:16;9.40;;;3.42;;
27539;SDS011;15906;52.046;4.724;2023-05-02T14:37:41;7.95;;;3.20;;
27539;SDS011;15906;52.046;4.724;2023-05-02T14:40:09;9.13;;;3.90;;
27539;SDS011;15906;52.046;4.724;2023-05-02T14:42:35;8.68;;;3.38;;
27539;SDS011;15906;52.046;4.724;2023-05-02T14:45:01;7.15;;;3.70;;
27539;SDS011;15906;52.046;4.724;2023-05-02T14:47:27;10.38;;;3.30;;
27539;SDS011;15906;52.046;4.724;2023-05-02T14:49:55;8.73;;;3.50;;
27539;SDS011;15906;52.046;4.724;2023-05-02T14:52:20;12.57;;;2.97;;
27539;SDS011;15906;52.046;4.724;2023-05-02T14:54:46;8.52;;;3.03;;
27539;SDS011;15906;52.046;4.724;2023-05-02T14:57:12;6.35;;;3.00;;
27539;SDS011;15906;52.046;4.724;2023-05-02T14:59:37;8.77;;;3.33;;
27539;SDS011;15906;52.046;4.724;2023-05-02T15:02:04;9.32;;;3.28;;
27539;SDS011;15906;52.046;4.724;2023-05-02T15:04:30;8.07;;;2.55;;
27539;SDS011;15906;52.046;4.724;2023-05-02T15:06:56;8.75;;;3.15;;
27539;SDS011;15906;52.046;4.724;2023-05-02T15:09:22;7.07;;;2.80;;
27539;SDS011;15906;52.046;4.724;2023-05-02T15:11:50;7.88;;;2.70;;
27539;SDS011;15906;52.046;4.724;2023-05-02T15:14:19;10.23;;;2.95;;
27539;SDS011;15906;52.046;4.724;2023-05-02T15:16:44;12.77;;;3.75;;
27539;SDS011;15906;52.046;4.724;2023-05-02T15:19:10;9.23;;;2.85;;
27539;SDS011;15906;52.046;4.724;2023-05-02T15:21:36;6.95;;;3.33;;
27539;SDS011;15906;52.046;4.724;2023-05-02T15:24:01;8.90;;;3.63;;